Time;durP1;ratioP1;P1;durP2;ratioP2;P2;SDS_P1;SDS_P2;PMS_P1;PMS_P2;Temp;Humidity;BMP_temperature;BMP_pressure;BME280_temperature;BME280_humidity;BME280_pressure;Samples;Min_cycle;Max_cycle;Signal;HPM_P1;HPM_P2
2022/10/21 00:00:27;;;;;;;30.35;21.33;;;13.40;99.90;;;;;;5073269;28;20067;-43
2022/10/21 00:02:53;;;;;;;32.42;22.70;;;13.40;99.90;;;;;;5073030;28;20056;-43
2022/10/21 00:05:19;;;;;;;40.00;24.65;;;13.40;99.90;;;;;;5073045;28;20104;-45
2022/10/21 00:07:44;;;;;;;36.95;23.40;;;13.40;99.90;;;;;;5073094;28;20101;-51
2022/10/21 00:10:10;;;;;;;36.28;24.92;;;13.30;99.90;;;;;;5073018;28;20032;-45
2022/10/21 00:12:37;;;;;;;42.63;24.75;;;13.30;99.90;;;;;;5072777;28;20028;-44
2022/10/21 00:15:04;;;;;;;40.40;24.90;;;13.30;99.90;;;;;;5072768;28;20036;-48
2022/10/21 00:17:30;;;;;;;36.72;24.58;;;13.20;99.90;;;;;;5072985;28;20021;-46
2022/10/21 00:19:55;;;;;;;40.78;27.02;;;13.20;99.90;;;;;;5071516;28;20039;-47
2022/10/21 00:22:21;;;;;;;46.15;27.40;;;13.20;99.90;;;;;;5072222;28;20028;-43
2022/10/21 00:24:47;;;;;;;34.72;24.33;;;13.20;99.90;;;;;;5072543;28;20021;-44
2022/10/21 00:27:13;;;;;;;40.75;24.17;;;13.20;99.90;;;;;;5073013;28;20573;-44
2022/10/21 00:29:38;;;;;;;40.38;25.17;;;13.20;99.90;;;;;;5073032;28;20068;-44
2022/10/21 00:32:04;;;;;;;40.15;25.63;;;13.30;99.90;;;;;;5072725;28;20030;-46
2022/10/21 00:34:30;;;;;;;38.95;26.13;;;13.30;99.90;;;;;;5072872;28;20028;-47
2022/10/21 00:36:56;;;;;;;41.50;25.73;;;13.30;99.90;;;;;;5072713;28;20447;-47
2022/10/21 00:39:21;;;;;;;42.63;26.48;;;13.30;99.90;;;;;;5072539;28;20056;-45
2022/10/21 00:41:47;;;;;;;36.45;25.05;;;13.30;99.90;;;;;;5071913;28;20059;-48
2022/10/21 00:44:14;;;;;;;37.25;25.05;;;13.30;99.90;;;;;;5072480;28;20059;-45
2022/10/21 00:47:01;;;;;;;36.90;24.75;;;13.30;99.90;;;;;;5072641;28;20027;-44
2022/10/21 00:49:30;;;;;;;35.63;22.25;;;13.40;99.90;;;;;;5073107;28;20024;-47
2022/10/21 00:51:59;;;;;;;32.92;22.17;;;13.40;99.90;;;;;;5071740;28;20028;-43
2022/10/21 00:54:25;;;;;;;32.95;22.63;;;13.40;99.90;;;;;;5071418;28;20033;-45
2022/10/21 00:56:53;;;;;;;32.40;21.67;;;13.40;99.90;;;;;;5072628;28;20029;-50
2022/10/21 00:59:20;;;;;;;34.38;21.23;;;13.50;99.90;;;;;;5072505;28;20073;-46
2022/10/21 01:01:47;;;;;;;30.05;21.52;;;13.50;99.90;;;;;;5072151;28;20028;-46
2022/10/21 01:04:13;;;;;;;28.48;20.70;;;13.40;99.90;;;;;;5072044;28;20021;-47
2022/10/21 01:06:39;;;;;;;29.65;21.55;;;13.40;99.90;;;;;;5072369;28;20036;-44
2022/10/21 01:09:05;;;;;;;28.60;21.85;;;13.40;99.90;;;;;;5072679;28;20021;-45
2022/10/21 01:11:41;;;;;;;36.28;24.17;;;13.40;99.90;;;;;;5072393;28;20032;-48
2022/10/21 01:14:15;;;;;;;31.40;21.33;;;13.40;99.90;;;;;;5072149;28;20028;-45
2022/10/21 01:17:10;;;;;;;40.08;23.48;;;13.40;99.90;;;;;;5070904;28;20166;-49
2022/10/21 01:20:02;;;;;;;35.55;23.40;;;13.40;99.90;;;;;;5072236;28;20032;-50
2022/10/21 01:22:53;;;;;;;32.15;20.90;;;13.40;99.90;;;;;;5070222;28;20025;-47
2022/10/21 01:25:52;;;;;;;32.63;22.77;;;13.40;99.90;;;;;;5072177;28;20017;-46
2022/10/21 01:28:24;;;;;;;52.33;22.88;;;13.50;99.90;;;;;;5072328;28;20052;-45
2022/10/21 01:30:56;;;;;;;86.53;24.67;;;13.40;99.90;;;;;;5072184;28;20059;-45
2022/10/21 01:33:41;;;;;;;60.25;22.75;;;13.40;99.90;;;;;;5072062;28;20020;-47
2022/10/21 01:36:21;;;;;;;40.22;23.40;;;13.40;99.90;;;;;;5071099;28;20036;-45
2022/10/21 01:39:04;;;;;;;32.75;21.88;;;13.30;99.90;;;;;;5072030;28;20044;-43
2022/10/21 01:41:42;;;;;;;55.55;22.95;;;13.30;99.90;;;;;;5071811;28;20025;-45
2022/10/21 01:44:40;;;;;;;59.38;23.67;;;13.30;99.90;;;;;;5071821;28;20368;-45
2022/10/21 01:47:08;;;;;;;37.13;21.30;;;13.30;99.90;;;;;;5048819;28;20032;-45
2022/10/21 01:49:39;;;;;;;87.75;23.35;;;13.20;99.90;;;;;;5072123;28;20021;-50
2022/10/21 01:52:07;;;;;;;74.72;24.45;;;13.20;99.90;;;;;;5071948;28;20103;-46
2022/10/21 01:54:48;;;;;;;25.52;20.02;;;13.30;99.90;;;;;;5072097;28;20454;-44
2022/10/21 01:57:17;;;;;;;32.08;21.83;;;13.20;99.90;;;;;;5072139;28;20036;-49
2022/10/21 01:59:44;;;;;;;33.13;21.38;;;13.30;99.90;;;;;;5071741;28;20025;-45
2022/10/21 02:02:11;;;;;;;29.40;21.83;;;13.40;99.90;;;;;;5071191;28;20365;-46
2022/10/21 02:04:40;;;;;;;31.27;21.83;;;13.40;99.90;;;;;;5071764;28;20028;-46
2022/10/21 02:07:06;;;;;;;35.55;21.95;;;13.50;99.90;;;;;;5071540;28;20488;-45
2022/10/21 02:09:31;;;;;;;30.45;22.08;;;13.60;99.90;;;;;;5071615;28;20074;-51
2022/10/21 02:12:00;;;;;;;26.20;19.55;;;13.60;99.90;;;;;;5071532;28;20039;-45
2022/10/21 02:14:33;;;;;;;26.88;20.67;;;13.50;99.90;;;;;;5071562;28;20040;-44
2022/10/21 02:16:59;;;;;;;22.38;18.35;;;13.50;99.90;;;;;;5070788;28;20461;-50
2022/10/21 02:19:26;;;;;;;31.05;19.73;;;13.40;99.90;;;;;;5071616;28;20111;-45
2022/10/21 02:21:54;;;;;;;24.25;19.15;;;13.40;99.90;;;;;;5071266;28;20058;-42
2022/10/21 02:24:50;;;;;;;27.15;20.10;;;13.30;99.90;;;;;;5071285;28;20104;-47
2022/10/21 02:27:16;;;;;;;30.63;19.23;;;13.40;99.90;;;;;;5071881;28;20040;-50
2022/10/21 02:29:44;;;;;;;31.92;20.10;;;13.30;99.90;;;;;;5071064;28;20606;-43
2022/10/21 02:32:33;;;;;;;30.55;20.52;;;13.30;99.90;;;;;;5070721;28;20029;-49
2022/10/21 02:35:08;;;;;;;27.88;18.15;;;13.30;99.90;;;;;;5070866;28;20373;-44
2022/10/21 02:37:45;;;;;;;35.78;20.63;;;13.30;99.90;;;;;;5071030;28;20024;-46
2022/10/21 02:40:20;;;;;;;24.38;18.70;;;13.20;99.90;;;;;;5071025;28;20063;-45
2022/10/21 02:42:52;;;;;;;27.95;19.38;;;13.30;99.90;;;;;;5070735;28;20033;-43
2022/10/21 02:45:18;;;;;;;30.58;19.90;;;13.20;99.90;;;;;;5070875;28;20024;-44
2022/10/21 02:47:46;;;;;;;37.35;20.95;;;13.20;99.90;;;;;;5072532;28;20089;-47
2022/10/21 02:50:12;;;;;;;36.10;21.02;;;13.20;99.90;;;;;;5074614;28;20430;-46
2022/10/21 02:52:37;;;;;;;29.23;19.48;;;13.20;99.90;;;;;;5074653;28;20024;-45
2022/10/21 02:55:03;;;;;;;32.65;21.02;;;13.20;99.90;;;;;;5074393;28;20071;-47
2022/10/21 02:57:29;;;;;;;28.05;20.30;;;13.20;99.90;;;;;;5074560;28;20381;-43
2022/10/21 02:59:54;;;;;;;29.80;18.92;;;13.20;99.90;;;;;;5074539;28;20103;-49
2022/10/21 03:02:20;;;;;;;26.33;19.73;;;13.20;99.90;;;;;;5073967;28;20111;-43
2022/10/21 03:04:45;;;;;;;27.33;19.38;;;13.20;99.90;;;;;;5074252;28;20021;-51
2022/10/21 03:07:11;;;;;;;26.55;19.45;;;13.20;99.90;;;;;;5075008;28;20024;-48
2022/10/21 03:09:36;;;;;;;26.92;19.08;;;13.10;99.90;;;;;;5074254;28;20101;-46
2022/10/21 03:12:02;;;;;;;26.15;17.58;;;13.10;99.90;;;;;;5074054;28;20036;-50
2022/10/21 03:14:27;;;;;;;26.35;18.42;;;13.00;99.90;;;;;;5074945;28;20043;-41
2022/10/21 03:16:53;;;;;;;24.10;16.55;;;13.10;99.90;;;;;;5075203;28;20496;-44
2022/10/21 03:19:18;;;;;;;23.92;17.40;;;13.00;99.90;;;;;;5074970;28;20051;-46
2022/10/21 03:21:44;;;;;;;21.48;17.02;;;13.00;99.90;;;;;;5073038;28;20066;-44
2022/10/21 03:24:09;;;;;;;21.83;17.08;;;13.00;99.90;;;;;;5074258;28;20484;-45
2022/10/21 03:26:35;;;;;;;23.73;17.25;;;13.00;99.90;;;;;;5074318;28;20053;-44
2022/10/21 03:29:00;;;;;;;26.95;16.77;;;13.00;99.90;;;;;;5074022;28;20025;-45
2022/10/21 03:31:26;;;;;;;21.20;15.23;;;13.00;99.90;;;;;;5073794;28;20029;-43
2022/10/21 03:33:51;;;;;;;26.27;17.58;;;13.00;99.90;;;;;;5072238;28;20028;-46
2022/10/21 03:36:18;;;;;;;24.90;17.05;;;13.00;99.90;;;;;;5073924;28;20048;-46
2022/10/21 03:38:43;;;;;;;23.30;18.58;;;13.00;99.90;;;;;;5072490;28;20031;-45
2022/10/21 03:41:08;;;;;;;24.05;18.45;;;13.00;99.90;;;;;;5073630;28;20021;-43
2022/10/21 03:43:34;;;;;;;32.72;18.90;;;13.00;99.90;;;;;;5073368;28;20025;-48
2022/10/21 03:45:59;;;;;;;26.73;17.95;;;13.00;99.90;;;;;;5073421;28;20503;-48
2022/10/21 03:48:25;;;;;;;22.98;17.95;;;13.00;99.90;;;;;;5073865;28;20052;-47
2022/10/21 03:50:51;;;;;;;22.15;17.33;;;13.00;99.90;;;;;;5073536;28;20047;-46
2022/10/21 03:53:16;;;;;;;26.63;17.48;;;13.00;99.90;;;;;;5073215;28;20029;-49
2022/10/21 03:55:42;;;;;;;18.17;15.48;;;13.00;99.90;;;;;;5073266;28;20025;-48
2022/10/21 03:58:07;;;;;;;34.53;16.40;;;12.90;99.90;;;;;;5073076;28;20028;-42
2022/10/21 04:00:33;;;;;;;118.80;20.00;;;13.00;99.90;;;;;;5072657;28;20024;-44
2022/10/21 04:02:58;;;;;;;73.05;18.90;;;13.00;99.90;;;;;;5072976;28;20020;-48
2022/10/21 04:05:24;;;;;;;120.00;19.30;;;12.90;99.90;;;;;;5073100;28;20488;-47
2022/10/21 04:07:49;;;;;;;84.03;20.20;;;12.90;99.90;;;;;;5073645;28;20016;-43
2022/10/21 04:10:15;;;;;;;177.60;21.48;;;12.80;99.90;;;;;;5073184;28;20116;-46
2022/10/21 04:12:40;;;;;;;120.95;19.80;;;12.80;99.90;;;;;;5072841;28;20103;-43
2022/10/21 04:15:07;;;;;;;99.75;19.42;;;12.80;99.90;;;;;;5083723;22;20485;-51
2022/10/21 04:17:32;;;;;;;33.50;18.83;;;12.80;99.90;;;;;;5052866;28;20025;-45
2022/10/21 04:19:58;;;;;;;30.75;21.15;;;12.80;99.90;;;;;;5053201;28;20435;-47
2022/10/21 04:22:23;;;;;;;35.33;21.48;;;12.80;99.90;;;;;;5052618;28;20545;-49
2022/10/21 04:24:49;;;;;;;49.75;20.85;;;12.80;99.90;;;;;;5052903;28;20048;-48
2022/10/21 04:27:14;;;;;;;40.67;20.88;;;12.80;99.90;;;;;;5052956;28;20082;-49
2022/10/21 04:29:40;;;;;;;49.10;21.35;;;12.80;99.90;;;;;;5052868;28;20020;-46
2022/10/21 04:32:06;;;;;;;51.33;20.42;;;12.80;99.90;;;;;;5052712;28;20087;-52
2022/10/21 04:34:31;;;;;;;63.70;21.33;;;12.80;99.90;;;;;;5052633;28;20064;-47
2022/10/21 04:36:57;;;;;;;72.10;21.73;;;12.70;99.90;;;;;;5052708;28;20113;-51
2022/10/21 04:39:22;;;;;;;58.80;21.98;;;12.70;99.90;;;;;;5051324;28;20025;-49
2022/10/21 04:41:49;;;;;;;52.88;24.98;;;12.60;99.90;;;;;;5051169;28;20033;-48
2022/10/21 04:44:15;;;;;;;52.15;23.33;;;12.60;99.90;;;;;;5050923;28;20104;-47
2022/10/21 04:46:40;;;;;;;77.32;29.90;;;12.60;99.90;;;;;;5051351;28;20112;-53
2022/10/21 04:49:06;;;;;;;93.55;36.05;;;12.60;99.90;;;;;;5052545;28;20444;-48
2022/10/21 04:51:31;;;;;;;64.00;26.20;;;12.60;99.90;;;;;;5052320;28;20023;-46
2022/10/21 04:53:57;;;;;;;52.15;25.52;;;12.60;99.90;;;;;;5052153;28;20066;-48
2022/10/21 04:56:23;;;;;;;62.75;24.00;;;12.60;99.90;;;;;;5052533;28;20107;-49
2022/10/21 04:58:48;;;;;;;70.35;22.35;;;12.60;99.90;;;;;;5052505;28;20553;-45
2022/10/21 05:01:14;;;;;;;76.50;28.38;;;12.60;99.90;;;;;;5052249;28;20116;-46
2022/10/21 05:03:39;;;;;;;64.07;29.98;;;12.60;99.90;;;;;;5052102;28;20027;-48
2022/10/21 05:06:05;;;;;;;74.80;31.48;;;12.60;99.90;;;;;;5052030;28;20063;-48
2022/10/21 05:08:30;;;;;;;58.72;24.60;;;12.70;99.90;;;;;;5052131;28;20025;-49
2022/10/21 05:10:59;;;;;;;79.75;22.95;;;12.70;99.90;;;;;;5052276;28;20040;-47
2022/10/21 05:13:25;;;;;;;84.93;23.15;;;12.80;99.90;;;;;;5051921;28;20396;-45
2022/10/21 05:15:50;;;;;;;77.88;22.60;;;12.80;99.90;;;;;;5051837;28;20044;-49
2022/10/21 05:18:16;;;;;;;98.10;21.90;;;12.80;99.90;;;;;;5052083;28;20025;-52
2022/10/21 05:20:41;;;;;;;73.60;21.83;;;12.80;99.90;;;;;;5052097;28;20504;-51
2022/10/21 05:23:07;;;;;;;39.33;21.35;;;12.80;99.90;;;;;;5051512;28;20029;-47
2022/10/21 05:25:52;;;;;;;;;;;;;;;;;;;;;
2022/10/21 05:28:18;;;;;;;62.00;39.30;;;12.90;99.90;;;;;;5051700;28;20029;-49
2022/10/21 05:30:44;;;;;;;51.15;28.20;;;12.90;99.90;;;;;;5051954;28;20029;-52
2022/10/21 05:33:09;;;;;;;66.63;24.83;;;12.90;99.90;;;;;;5051200;28;20076;-49
2022/10/21 05:35:35;;;;;;;62.45;25.75;;;12.90;99.90;;;;;;5051534;28;20031;-48
2022/10/21 05:38:01;;;;;;;48.65;36.30;;;12.90;99.90;;;;;;5051654;28;20032;-50
2022/10/21 05:40:27;;;;;;;93.50;24.55;;;12.80;99.90;;;;;;5051715;28;20029;-49
2022/10/21 05:42:52;;;;;;;63.85;23.50;;;12.80;99.90;;;;;;5051091;28;20036;-48
2022/10/21 05:45:18;;;;;;;31.20;22.58;;;12.80;99.90;;;;;;5051509;28;20063;-46
2022/10/21 05:47:44;;;;;;;43.03;23.08;;;12.90;99.90;;;;;;5051535;28;20159;-50
2022/10/21 05:50:11;;;;;;;30.65;21.00;;;12.90;99.90;;;;;;5050054;28;20476;-52
2022/10/21 05:52:37;;;;;;;34.45;22.42;;;12.90;99.90;;;;;;5051071;28;20032;-51
2022/10/21 05:55:03;;;;;;;32.25;21.75;;;12.90;99.90;;;;;;5051243;28;20033;-50
2022/10/21 05:57:34;;;;;;;41.70;22.60;;;12.90;99.90;;;;;;5051249;28;20029;-48
2022/10/21 05:59:59;;;;;;;42.15;23.35;;;13.00;99.90;;;;;;5051449;28;20032;-46
2022/10/21 06:02:25;;;;;;;50.33;30.98;;;13.10;99.90;;;;;;5050951;28;20033;-49
2022/10/21 06:04:50;;;;;;;52.63;26.08;;;13.00;99.90;;;;;;5051172;28;20076;-51
2022/10/21 06:07:16;;;;;;;38.38;23.77;;;13.10;99.90;;;;;;5051330;28;20024;-45
2022/10/21 06:09:41;;;;;;;41.15;24.52;;;13.00;99.90;;;;;;5051397;28;20083;-47
2022/10/21 06:12:07;;;;;;;33.35;21.80;;;13.00;99.90;;;;;;5050956;28;20025;-48
2022/10/21 06:14:35;;;;;;;39.85;22.88;;;13.00;99.90;;;;;;5051022;28;20028;-47
2022/10/21 06:17:01;;;;;;;41.30;20.45;;;13.00;99.90;;;;;;5051192;28;20029;-46
2022/10/21 06:19:26;;;;;;;31.85;21.52;;;13.10;99.90;;;;;;5051325;28;20036;-49
2022/10/21 06:21:53;;;;;;;31.10;20.20;;;13.00;99.90;;;;;;5050106;28;20029;-49
2022/10/21 06:24:19;;;;;;;34.95;21.27;;;13.10;99.90;;;;;;5055047;28;20044;-47
2022/10/21 06:26:44;;;;;;;33.50;23.58;;;13.20;99.90;;;;;;5055125;28;20538;-50
2022/10/21 06:29:10;;;;;;;35.80;21.73;;;13.20;99.90;;;;;;5055096;28;20057;-46
2022/10/21 06:31:35;;;;;;;34.13;22.58;;;13.20;99.90;;;;;;5055067;28;20048;-51
2022/10/21 06:34:01;;;;;;;36.85;21.80;;;13.10;99.90;;;;;;5054562;28;20509;-47
2022/10/21 06:36:26;;;;;;;32.63;21.77;;;13.10;99.90;;;;;;5055054;28;20421;-47
2022/10/21 06:38:52;;;;;;;34.65;20.40;;;13.20;99.90;;;;;;5054924;28;20052;-49
2022/10/21 06:41:18;;;;;;;33.60;21.52;;;13.20;99.90;;;;;;5054859;28;20032;-51
2022/10/21 06:43:43;;;;;;;40.30;22.73;;;13.20;99.90;;;;;;5054637;28;20028;-47
2022/10/21 06:46:11;;;;;;;30.70;20.17;;;13.30;99.90;;;;;;5054744;28;20463;-49
2022/10/21 06:48:37;;;;;;;31.58;21.23;;;13.20;99.90;;;;;;5054799;28;20400;-46
2022/10/21 06:51:08;;;;;;;34.05;21.35;;;13.30;99.90;;;;;;5054792;28;20027;-47
2022/10/21 06:53:35;;;;;;;30.55;20.33;;;13.20;99.90;;;;;;5054414;28;20083;-51
2022/10/21 06:56:03;;;;;;;28.67;20.52;;;13.20;99.90;;;;;;5054701;28;20095;-50
2022/10/21 06:58:29;;;;;;;37.40;20.58;;;13.20;99.90;;;;;;5055480;28;20501;-46
2022/10/21 07:00:55;;;;;;;35.58;19.92;;;13.20;99.90;;;;;;5055359;28;20377;-52
2022/10/21 07:03:20;;;;;;;39.10;20.98;;;13.30;99.90;;;;;;5054944;28;20082;-48
2022/10/21 07:05:46;;;;;;;33.85;20.02;;;13.30;99.90;;;;;;5055192;28;20506;-51
2022/10/21 07:08:12;;;;;;;25.88;18.73;;;13.30;99.90;;;;;;5054156;28;20116;-46
2022/10/21 07:10:37;;;;;;;34.50;20.65;;;13.30;99.90;;;;;;5053701;28;20033;-50
2022/10/21 07:13:03;;;;;;;35.70;20.83;;;13.30;99.90;;;;;;5054520;28;20389;-49
2022/10/21 07:15:29;;;;;;;32.03;19.90;;;13.40;99.90;;;;;;5054007;28;20385;-47
2022/10/21 07:17:59;;;;;;;33.47;20.20;;;13.50;99.90;;;;;;5054099;28;20024;-47
2022/10/21 07:20:25;;;;;;;28.63;19.10;;;13.50;99.90;;;;;;5054393;28;20519;-48
2022/10/21 07:22:51;;;;;;;32.08;19.50;;;13.60;99.90;;;;;;5053628;28;20469;-47
2022/10/21 07:25:16;;;;;;;31.33;18.75;;;13.60;99.90;;;;;;5053858;28;20017;-49
2022/10/21 07:27:42;;;;;;;29.73;17.58;;;13.60;99.90;;;;;;5054100;28;20017;-49
2022/10/21 07:30:08;;;;;;;27.67;19.20;;;13.70;99.90;;;;;;5055168;28;20100;-46
2022/10/21 07:32:33;;;;;;;34.13;18.88;;;13.60;99.90;;;;;;5056019;28;20036;-52
2022/10/21 07:34:59;;;;;;;30.25;18.63;;;13.60;99.90;;;;;;5052263;28;20025;-54
2022/10/21 07:37:25;;;;;;;30.73;19.83;;;13.60;99.90;;;;;;5054048;28;20426;-49
2022/10/21 07:39:50;;;;;;;29.45;18.00;;;13.60;99.90;;;;;;5054203;28;20112;-47
2022/10/21 07:42:16;;;;;;;23.90;16.65;;;13.70;99.90;;;;;;5053651;28;20033;-46
2022/10/21 07:44:41;;;;;;;33.10;20.13;;;13.60;99.90;;;;;;5052275;28;20025;-46
2022/10/21 07:47:07;;;;;;;32.30;18.00;;;13.70;99.90;;;;;;5053725;28;20103;-46
2022/10/21 07:49:32;;;;;;;26.08;17.30;;;13.70;99.90;;;;;;5053257;28;20033;-45
2022/10/21 07:51:58;;;;;;;32.80;18.95;;;13.80;99.90;;;;;;5051823;28;20449;-50
2022/10/21 07:54:24;;;;;;;28.50;18.20;;;13.90;99.90;;;;;;5053078;28;20021;-49
2022/10/21 07:56:51;;;;;;;31.42;18.52;;;13.90;99.90;;;;;;5053623;28;20420;-45
2022/10/21 07:59:18;;;;;;;36.38;16.95;;;13.90;99.90;;;;;;5052010;28;20492;-45
2022/10/21 08:01:44;;;;;;;30.25;16.40;;;14.00;99.90;;;;;;5053396;28;20067;-47
2022/10/21 08:04:11;;;;;;;30.25;17.48;;;14.10;99.90;;;;;;5053340;28;20044;-45
2022/10/21 08:06:37;;;;;;;28.13;16.83;;;14.10;99.90;;;;;;5053096;28;20040;-44
2022/10/21 08:09:03;;;;;;;31.10;17.13;;;14.10;99.90;;;;;;5053343;28;20023;-45
2022/10/21 08:11:31;;;;;;;34.75;17.67;;;14.20;99.90;;;;;;5052206;28;20140;-44
2022/10/21 08:13:57;;;;;;;25.63;16.35;;;14.20;99.90;;;;;;5051584;28;20028;-47
2022/10/21 08:16:23;;;;;;;27.90;17.42;;;14.30;99.90;;;;;;5053679;28;20021;-49
2022/10/21 08:18:49;;;;;;;29.92;16.65;;;14.30;99.90;;;;;;5053565;28;20407;-45
2022/10/21 08:21:15;;;;;;;23.83;16.13;;;14.40;99.90;;;;;;5053453;28;20431;-48
2022/10/21 08:23:41;;;;;;;27.15;16.30;;;14.40;99.90;;;;;;5051819;28;20049;-44
2022/10/21 08:26:11;;;;;;;20.98;15.25;;;14.40;99.90;;;;;;5052966;28;20017;-46
2022/10/21 08:28:37;;;;;;;28.10;16.17;;;14.40;99.90;;;;;;5053138;28;20384;-44
2022/10/21 08:31:05;;;;;;;28.98;14.02;;;14.50;99.90;;;;;;5052704;28;20081;-45
2022/10/21 08:33:31;;;;;;;27.23;15.07;;;14.50;99.90;;;;;;5052769;28;20459;-45
2022/10/21 08:35:56;;;;;;;25.88;15.07;;;14.60;99.90;;;;;;5052869;28;20051;-45
2022/10/21 08:38:22;;;;;;;22.15;14.07;;;14.60;99.90;;;;;;5052851;28;20025;-49
2022/10/21 08:40:48;;;;;;;27.08;14.93;;;14.60;99.90;;;;;;5053050;28;20048;-45
2022/10/21 08:43:22;;;;;;;31.45;15.50;;;14.70;99.90;;;;;;5051478;28;20031;-45
2022/10/21 08:46:10;;;;;;;27.20;14.10;;;14.70;99.90;;;;;;5052595;28;20025;-44
2022/10/21 08:48:52;;;;;;;25.58;14.77;;;14.70;99.90;;;;;;5053097;28;20029;-45
2022/10/21 08:51:38;;;;;;;26.42;14.63;;;14.70;99.90;;;;;;5051063;28;20021;-50
2022/10/21 08:54:33;;;;;;;21.63;13.88;;;14.70;99.90;;;;;;5052384;28;20017;-48
2022/10/21 08:56:59;;;;;;;21.60;14.15;;;14.80;99.90;;;;;;5052751;28;20545;-51
2022/10/21 08:59:25;;;;;;;24.27;13.57;;;14.80;99.90;;;;;;5052362;28;20040;-45
2022/10/21 09:02:17;;;;;;;23.13;13.38;;;14.80;99.90;;;;;;5051198;28;20059;-54
2022/10/21 09:05:11;;;;;;;25.27;12.98;;;14.80;99.90;;;;;;5050726;28;20021;-49
2022/10/21 09:07:52;;;;;;;22.58;13.25;;;14.90;99.90;;;;;;5053352;28;20031;-50
2022/10/21 09:10:30;;;;;;;21.65;13.30;;;14.90;99.90;;;;;;5053000;28;20420;-51
2022/10/21 09:13:11;;;;;;;22.02;12.55;;;15.00;99.90;;;;;;5051912;28;20504;-51
2022/10/21 09:16:05;;;;;;;24.90;13.27;;;15.10;99.90;;;;;;5051547;28;20057;-50
2022/10/21 09:18:34;;;;;;;19.02;12.95;;;15.10;99.90;;;;;;5051966;28;20024;-51
2022/10/21 09:21:18;;;;;;;25.45;13.52;;;15.10;99.90;;;;;;5051895;28;20112;-54
2022/10/21 09:24:13;;;;;;;23.95;13.68;;;15.20;99.90;;;;;;5051562;28;20506;-51
2022/10/21 09:26:46;;;;;;;23.95;13.38;;;15.20;99.90;;;;;;5049967;28;20496;-53
2022/10/21 09:29:35;;;;;;;26.98;13.25;;;15.20;99.90;;;;;;5051922;28;20040;-55
2022/10/21 09:32:16;;;;;;;26.00;12.82;;;15.20;99.90;;;;;;5051466;28;20056;-49
2022/10/21 09:35:13;;;;;;;24.80;13.05;;;15.30;99.90;;;;;;5051867;28;20033;-51
2022/10/21 09:37:46;;;;;;;23.85;14.07;;;15.30;99.90;;;;;;5051556;28;20020;-52
2022/10/21 09:40:19;;;;;;;19.48;12.88;;;15.30;99.90;;;;;;5051869;28;20435;-53
2022/10/21 09:42:48;;;;;;;29.15;13.95;;;15.30;99.90;;;;;;5051259;28;20040;-51
2022/10/21 09:45:35;;;;;;;26.27;13.13;;;15.20;99.90;;;;;;5051769;28;20025;-49
2022/10/21 09:48:21;;;;;;;22.15;12.48;;;15.30;99.90;;;;;;5051392;28;20057;-51
2022/10/21 09:50:52;;;;;;;23.35;12.60;;;15.30;99.90;;;;;;5050785;28;20052;-53
2022/10/21 09:53:39;;;;;;;25.20;12.95;;;15.40;99.90;;;;;;5048103;28;20461;-50
2022/10/21 09:56:21;;;;;;;24.00;13.00;;;15.40;99.90;;;;;;5033633;28;20034;-51
2022/10/21 09:59:05;;;;;;;23.40;12.35;;;15.30;99.90;;;;;;5037592;28;20044;-50
2022/10/21 10:01:31;;;;;;;24.90;13.20;;;15.40;99.90;;;;;;5050378;28;20041;-54
2022/10/21 10:03:57;;;;;;;16.40;11.32;;;15.40;99.90;;;;;;5049463;28;20057;-50
2022/10/21 10:06:49;;;;;;;16.02;12.05;;;15.40;99.90;;;;;;5051394;28;20044;-49
2022/10/21 10:09:22;;;;;;;17.52;12.95;;;15.30;99.90;;;;;;5047624;28;20129;-52
2022/10/21 10:12:26;;;;;;;20.80;15.98;;;15.30;99.90;;;;;;5051444;28;20112;-52
2022/10/21 10:14:52;;;;;;;55.22;37.75;;;15.40;99.90;;;;;;5052401;28;20095;-48
2022/10/21 10:17:29;;;;;;;15.02;11.27;;;15.40;99.90;;;;;;5055567;28;20036;-45
2022/10/21 10:20:04;;;;;;;13.52;9.90;;;15.50;99.90;;;;;;5055797;28;20025;-49
2022/10/21 10:22:32;;;;;;;10.38;8.45;;;15.50;99.90;;;;;;5057074;28;20036;-47
2022/10/21 10:25:16;;;;;;;11.88;8.88;;;15.60;99.90;;;;;;5055532;28;20392;-47
2022/10/21 10:28:07;;;;;;;13.20;8.45;;;15.60;99.90;;;;;;5052612;28;20024;-46
2022/10/21 10:30:42;;;;;;;11.27;7.47;;;15.50;99.90;;;;;;5052281;28;20033;-46
2022/10/21 10:33:15;;;;;;;11.02;8.15;;;15.60;99.90;;;;;;5049933;28;20519;-50
2022/10/21 10:35:47;;;;;;;9.30;7.25;;;15.70;99.90;;;;;;5051267;28;20507;-42
2022/10/21 10:38:39;;;;;;;8.43;6.90;;;15.70;99.90;;;;;;5051132;28;20025;-44
2022/10/21 10:41:09;;;;;;;12.23;7.13;;;15.70;99.90;;;;;;5051193;28;20021;-45
2022/10/21 10:43:42;;;;;;;10.57;6.65;;;15.80;99.90;;;;;;5049434;28;20033;-44
2022/10/21 10:46:14;;;;;;;7.40;6.20;;;15.80;99.90;;;;;;5051119;28;20029;-46
2022/10/21 10:48:44;;;;;;;8.32;6.35;;;15.70;99.90;;;;;;5051780;28;20021;-50
2022/10/21 10:51:23;;;;;;;24.77;8.32;;;15.70;99.90;;;;;;5051631;28;20055;-45
2022/10/21 10:54:20;;;;;;;9.18;6.03;;;15.80;99.90;;;;;;5052176;28;20037;-44
2022/10/21 10:56:56;;;;;;;8.80;5.50;;;15.80;99.90;;;;;;5035296;28;20044;-45
2022/10/21 10:59:48;;;;;;;6.75;5.20;;;15.70;99.90;;;;;;5052706;28;20071;-46
2022/10/21 11:02:51;;;;;;;8.05;6.22;;;15.80;99.90;;;;;;5052419;28;20032;-45
2022/10/21 11:05:40;;;;;;;8.23;6.43;;;15.80;99.90;;;;;;5051876;28;20025;-48
2022/10/21 11:08:14;;;;;;;6.97;6.00;;;15.80;99.90;;;;;;5052947;28;20021;-46
2022/10/21 11:10:46;;;;;;;23.42;15.40;;;15.80;99.90;;;;;;5055844;28;20392;-45
2022/10/21 11:13:14;;;;;;;8.13;5.88;;;15.70;99.90;;;;;;5054962;28;20024;-46
2022/10/21 11:16:14;;;;;;;9.95;5.53;;;15.70;99.90;;;;;;5054240;28;20037;-46
2022/10/21 11:18:43;;;;;;;10.55;7.15;;;15.80;99.90;;;;;;5053966;28;20036;-50
2022/10/21 11:21:36;;;;;;;7.57;6.22;;;15.80;99.90;;;;;;5053185;28;20044;-47
2022/10/21 11:24:14;;;;;;;8.32;5.68;;;15.80;99.90;;;;;;5054109;28;20112;-46
2022/10/21 11:27:11;;;;;;;7.70;5.82;;;15.80;99.90;;;;;;5053372;28;20507;-45
2022/10/21 11:29:55;;;;;;;8.10;4.90;;;15.90;99.90;;;;;;5022796;28;20041;-46
2022/10/21 11:32:34;;;;;;;7.63;4.65;;;15.90;99.90;;;;;;5053942;28;20048;-49
2022/10/21 11:35:26;;;;;;;9.00;5.38;;;15.90;99.90;;;;;;5053530;28;20489;-51
2022/10/21 11:38:20;;;;;;;7.38;4.20;;;16.10;99.90;;;;;;5053340;28;20767;-45
2022/10/21 11:41:12;;;;;;;7.78;4.28;;;16.20;99.90;;;;;;5036343;28;20037;-46
2022/10/21 11:43:50;;;;;;;5.53;3.65;;;16.30;99.90;;;;;;5049338;28;20037;-48
2022/10/21 11:46:28;;;;;;;3.78;3.33;;;16.30;99.90;;;;;;5053407;28;20029;-45
2022/10/21 11:49:17;;;;;;;4.28;3.03;;;16.50;99.90;;;;;;5053967;28;20095;-50
2022/10/21 11:52:09;;;;;;;3.83;2.78;;;16.70;99.90;;;;;;5053487;28;20033;-44
2022/10/21 11:55:23;;;;;;;2.70;2.50;;;16.90;99.90;;;;;;5053238;28;20028;-51
2022/10/21 11:58:01;;;;;;;3.20;1.80;;;17.10;99.90;;;;;;5053529;28;20043;-48
2022/10/21 12:00:35;;;;;;;3.60;2.35;;;17.40;99.90;;;;;;5053461;28;20021;-43
2022/10/21 12:03:12;;;;;;;3.75;1.80;;;17.60;99.90;;;;;;5053784;28;20029;-44
2022/10/21 12:05:47;;;;;;;2.78;1.58;;;17.50;99.90;;;;;;5053622;28;20082;-48
2022/10/21 12:08:29;;;;;;;3.78;1.33;;;17.40;99.90;;;;;;5052786;28;20060;-45
2022/10/21 12:10:57;;;;;;;1.33;1.23;;;17.50;99.90;;;;;;5053910;28;20021;-47
2022/10/21 12:13:31;;;;;;;1.65;1.52;;;17.50;99.90;;;;;;5053204;28;20408;-46
2022/10/21 12:16:06;;;;;;;2.60;1.73;;;17.50;99.90;;;;;;5056063;28;20048;-46
2022/10/21 12:18:36;;;;;;;1.92;1.73;;;17.50;99.90;;;;;;5053798;28;20031;-45
2022/10/21 12:21:01;;;;;;;1.48;1.38;;;17.50;99.90;;;;;;5056252;28;20456;-43
2022/10/21 12:23:29;;;;;;;1.58;1.48;;;17.50;99.90;;;;;;5057594;28;20036;-48
2022/10/21 12:26:00;;;;;;;2.55;1.30;;;17.60;99.90;;;;;;5056634;28;20078;-47
2022/10/21 12:28:48;;;;;;;3.35;1.55;;;17.70;99.90;;;;;;5057714;28;20056;-44
2022/10/21 12:31:32;;;;;;;1.27;1.17;;;17.70;99.90;;;;;;5057325;28;20017;-48
2022/10/21 12:33:58;;;;;;;3.22;1.27;;;17.80;99.90;;;;;;5056324;28;20025;-50
2022/10/21 12:36:24;;;;;;;43.72;35.53;;;17.70;99.90;;;;;;5054589;28;20033;-47
2022/10/21 12:38:57;;;;;;;10.50;5.43;;;17.80;99.90;;;;;;5053113;28;20108;-48
2022/10/21 12:41:23;;;;;;;8.40;3.85;;;17.70;99.90;;;;;;5054707;28;20400;-45
2022/10/21 12:44:15;;;;;;;3.67;1.80;;;17.70;99.90;;;;;;5054378;28;20029;-46
2022/10/21 12:46:59;;;;;;;2.55;1.98;;;17.90;99.90;;;;;;5044059;28;20112;-44
2022/10/21 12:49:31;;;;;;;2.65;1.58;;;17.90;99.90;;;;;;5052863;28;20066;-44
2022/10/21 12:52:37;;;;;;;3.22;1.48;;;17.90;99.90;;;;;;5052133;28;20032;-47